Kalmthout, Belgium
Current Conditions -  °F | °C
As of 8:39 PM on Friday 24 Oct 2014 (Local Time) from EHWO Reporting Station
Haze Haze  
Wind Chill: 54°   Ceiling: 600
Heat Index: 54°   Visibility: 3mi
Dew Point: 52°   Wind: 8mph
Humidity: 94%   Direction: 190°S
Pressure: 30"   Gusts: NA
Location:  51.38°N, 4.48°E
Report Text: EHWO 241839Z AUTO 19007KT 5000 BR SCT005 BKN006 BKN007 12/11 Q1016 YLO
Loading
Personal Weather Stations






























Interactive Weather Map
Tropical Storm Tracking
New forecast layout! Learn more

10-Day Weather Forecast

Advertisements
Track Severe Weather on mobile